createdAt,value
2022-11-18T00:00:56.689Z,80.02
2022-11-18T00:03:23.975Z,79.89
2022-11-18T00:05:57.946Z,80.24
2022-11-18T00:08:26.080Z,80.75
2022-11-18T00:10:54.247Z,80.43
2022-11-18T00:13:39.586Z,80.34
2022-11-18T00:16:12.069Z,79.98
2022-11-18T00:18:39.393Z,79.64
2022-11-18T00:21:09.366Z,80.06
2022-11-18T00:23:36.770Z,79.36
2022-11-18T00:26:13.998Z,78.76
2022-11-18T00:28:41.911Z,78.17
2022-11-18T00:31:11.749Z,78.83
2022-11-18T00:33:39.557Z,77.83
2022-11-18T00:36:09.413Z,78.03
2022-11-18T00:38:36.583Z,78.05
2022-11-18T00:41:08.955Z,77.60
2022-11-18T00:43:36.672Z,77.78
2022-11-18T00:46:05.464Z,78.21
2022-11-18T00:48:32.615Z,78.00
2022-11-18T00:51:10.834Z,77.55
2022-11-18T00:53:37.993Z,77.59
2022-11-18T00:56:05.318Z,77.92
2022-11-18T00:58:32.192Z,78.36
2022-11-18T01:00:59.514Z,77.75
2022-11-18T01:03:28.696Z,77.18
2022-11-18T01:05:55.648Z,76.63
2022-11-18T01:08:23.066Z,76.01
2022-11-18T01:10:50.929Z,75.67
2022-11-18T01:13:19.807Z,75.98
2022-11-18T01:15:52.677Z,75.99
2022-11-18T01:18:25.497Z,75.69
2022-11-18T01:20:52.849Z,75.74
2022-11-18T01:23:20.942Z,75.24
2022-11-18T01:25:49.847Z,75.83
2022-11-18T01:28:23.269Z,76.69
2022-11-18T01:30:51.334Z,76.38
2022-11-18T01:33:18.535Z,76.19
2022-11-18T01:35:45.574Z,76.56
2022-11-18T01:38:14.232Z,77.17
2022-11-18T01:40:41.959Z,77.63
2022-11-18T01:43:15.912Z,77.17
2022-11-18T01:45:45.405Z,76.78
2022-11-18T01:48:26.970Z,76.26
2022-11-18T01:51:06.328Z,76.64
2022-11-18T01:53:38.610Z,75.52
2022-11-18T01:56:13.369Z,75.70
2022-11-18T01:59:09.281Z,74.63
2022-11-18T02:01:36.461Z,74.84
2022-11-18T02:04:04.123Z,74.51
2022-11-18T02:06:31.122Z,74.30
2022-11-18T02:08:58.184Z,73.78
2022-11-18T02:11:43.487Z,73.30
2022-11-18T02:14:12.283Z,72.82
2022-11-18T02:16:42.091Z,72.73
2022-11-18T02:19:37.712Z,72.81
2022-11-18T02:22:19.650Z,72.79
2022-11-18T02:25:07.798Z,72.90
2022-11-18T02:28:12.057Z,73.41
2022-11-18T02:31:11.138Z,73.50
2022-11-18T02:33:49.103Z,73.63
2022-11-18T02:36:29.691Z,73.57
2022-11-18T02:39:03.470Z,73.86
2022-11-18T02:41:33.986Z,74.02
2022-11-18T02:44:24.844Z,73.60
2022-11-18T02:46:57.086Z,73.88
2022-11-18T02:49:32.361Z,74.11
2022-11-18T02:52:00.819Z,73.93
2022-11-18T02:54:29.392Z,74.40
2022-11-18T02:56:58.081Z,74.34
2022-11-18T02:59:28.443Z,73.98
2022-11-18T03:01:55.369Z,74.18
2022-11-18T03:04:24.407Z,74.08
2022-11-18T03:07:02.884Z,73.48
2022-11-18T03:09:39.336Z,73.33
2022-11-18T03:12:24.673Z,72.90
2022-11-18T03:15:16.581Z,72.26
2022-11-18T03:18:07.488Z,71.28
2022-11-18T03:20:41.979Z,71.40
2022-11-18T03:23:22.167Z,70.38
2022-11-18T03:25:54.970Z,71.14
2022-11-18T03:28:39.477Z,70.42
2022-11-18T03:31:38.783Z,70.66
2022-11-18T03:34:12.709Z,70.94
2022-11-18T03:36:48.849Z,71.82
2022-11-18T03:39:21.271Z,72.03
2022-11-18T03:42:02.713Z,70.65
2022-11-18T03:44:32.723Z,71.31
2022-11-18T03:47:05.074Z,71.18
2022-11-18T03:49:46.587Z,70.58
2022-11-18T03:52:19.011Z,70.88
2022-11-18T03:54:50.364Z,71.06
2022-11-18T03:57:27.094Z,70.43
2022-11-18T03:59:53.852Z,69.97
2022-11-18T04:02:24.970Z,70.33
2022-11-18T04:04:54.246Z,70.55
2022-11-18T04:07:36.078Z,71.19
2022-11-18T04:10:23.293Z,71.38
2022-11-18T04:12:53.957Z,70.92
2022-11-18T04:15:21.002Z,70.83
2022-11-18T04:17:47.966Z,70.72
2022-11-18T04:20:21.293Z,71.14
2022-11-18T04:22:48.614Z,71.58
2022-11-18T04:25:16.020Z,71.58
2022-11-18T04:27:42.984Z,72.69
2022-11-18T04:30:10.618Z,71.88
2022-11-18T04:32:37.614Z,72.18
2022-11-18T04:35:04.663Z,71.85
2022-11-18T04:37:31.600Z,72.47
2022-11-18T04:39:58.625Z,71.82
2022-11-18T04:42:25.699Z,72.60
2022-11-18T04:44:52.590Z,72.41
2022-11-18T04:47:19.546Z,72.64
2022-11-18T04:49:46.560Z,72.82
2022-11-18T04:52:14.024Z,72.38
2022-11-18T04:54:40.960Z,72.27
2022-11-18T04:57:08.113Z,71.71
2022-11-18T04:59:34.997Z,71.95
2022-11-18T05:02:02.203Z,71.84
2022-11-18T05:04:32.077Z,71.75
2022-11-18T05:07:00.730Z,71.93
2022-11-18T05:09:31.785Z,71.61
2022-11-18T05:12:18.274Z,71.08
2022-11-18T05:14:49.545Z,71.63
2022-11-18T05:17:16.925Z,71.24
2022-11-18T05:19:43.792Z,70.81
2022-11-18T05:22:10.659Z,71.26
2022-11-18T05:24:37.564Z,71.07
2022-11-18T05:27:04.593Z,70.75
2022-11-18T05:29:31.740Z,69.83
2022-11-18T05:31:58.603Z,70.18
2022-11-18T05:34:25.634Z,70.38
2022-11-18T05:36:52.554Z,70.00
2022-11-18T05:39:19.822Z,71.01
2022-11-18T05:42:05.555Z,70.78
2022-11-18T05:44:32.497Z,70.47
2022-11-18T05:47:00.372Z,71.11
2022-11-18T05:49:27.496Z,70.55
2022-11-18T05:51:54.318Z,69.93
2022-11-18T05:54:22.115Z,69.83
2022-11-18T05:56:49.354Z,69.11
2022-11-18T05:59:16.942Z,68.44
2022-11-18T06:01:58.419Z,68.02
2022-11-18T06:04:45.540Z,67.29
2022-11-18T06:07:18.883Z,66.60
2022-11-18T06:09:50.979Z,67.04
2022-11-18T06:12:21.740Z,66.27
2022-11-18T06:15:02.657Z,65.99
2022-11-18T06:17:40.407Z,65.06
2022-11-18T06:20:08.097Z,64.51
2022-11-18T06:22:35.789Z,63.94
2022-11-18T06:25:03.357Z,64.61
2022-11-18T06:27:31.158Z,64.47
2022-11-18T06:29:58.107Z,63.80
2022-11-18T06:32:24.990Z,64.02
2022-11-18T06:34:51.933Z,63.97
2022-11-18T06:37:23.122Z,63.19
2022-11-18T06:39:50.060Z,63.37
2022-11-18T06:42:36.904Z,62.64
2022-11-18T06:45:05.131Z,62.60
2022-11-18T06:47:32.179Z,62.72
2022-11-18T06:49:59.165Z,62.35
2022-11-18T06:52:26.114Z,61.85
2022-11-18T06:54:52.996Z,62.06
2022-11-18T06:57:19.934Z,62.46
2022-11-18T06:59:46.932Z,62.39
2022-11-18T07:02:13.895Z,62.35
2022-11-18T07:04:41.492Z,62.40
2022-11-18T07:07:08.611Z,62.70
2022-11-18T07:09:37.029Z,62.26
2022-11-18T07:12:04.674Z,61.05
2022-11-18T07:14:31.929Z,61.26
2022-11-18T07:16:58.857Z,60.44
2022-11-18T07:19:25.747Z,61.61
2022-11-18T07:21:52.983Z,61.27
2022-11-18T07:24:19.841Z,61.42
2022-11-18T07:26:46.965Z,60.58
2022-11-18T07:29:13.836Z,60.23
2022-11-18T07:31:41.039Z,60.03
2022-11-18T07:34:08.198Z,61.10
2022-11-18T07:36:36.232Z,62.27
2022-11-18T07:39:06.276Z,62.29
2022-11-18T07:41:34.390Z,63.38
2022-11-18T07:44:02.940Z,63.89
2022-11-18T07:46:35.732Z,63.74
2022-11-18T07:49:05.822Z,64.39
2022-11-18T07:51:35.190Z,65.11
2022-11-18T07:54:05.831Z,64.53
2022-11-18T07:56:32.774Z,64.26
2022-11-18T07:58:59.633Z,64.79
2022-11-18T08:01:31.263Z,64.54
2022-11-18T08:04:04.757Z,65.06
2022-11-18T08:06:34.222Z,64.36
2022-11-18T08:09:01.622Z,64.39
2022-11-18T08:11:28.702Z,64.52
2022-11-18T08:13:55.653Z,64.58
2022-11-18T08:16:24.706Z,65.02
2022-11-18T08:18:52.653Z,64.40
2022-11-18T08:21:21.491Z,65.01
2022-11-18T08:23:53.351Z,64.33
2022-11-18T08:26:20.812Z,64.07
2022-11-18T08:28:48.612Z,63.81
2022-11-18T08:31:21.126Z,62.77
2022-11-18T08:33:48.323Z,64.69
2022-11-18T08:36:21.331Z,64.03
2022-11-18T08:38:48.343Z,63.35
2022-11-18T08:41:19.866Z,62.44
2022-11-18T08:43:46.794Z,61.04
2022-11-18T08:46:13.812Z,62.50
2022-11-18T08:48:40.743Z,61.40
2022-11-18T08:51:11.655Z,61.64
2022-11-18T08:53:38.925Z,61.89
2022-11-18T08:56:06.435Z,61.95
2022-11-18T08:58:33.506Z,61.54
2022-11-18T09:01:06.637Z,62.03
2022-11-18T09:03:33.823Z,61.93
2022-11-18T09:06:10.701Z,62.13
2022-11-18T09:08:38.493Z,62.01
2022-11-18T09:11:13.010Z,62.23
2022-11-18T09:16:29.915Z,63.84
2022-11-18T09:19:02.092Z,65.03
2022-11-18T09:21:41.125Z,65.73
2022-11-18T09:24:08.567Z,64.45
2022-11-18T09:26:35.491Z,63.60
2022-11-18T09:29:02.608Z,64.67
2022-11-18T09:31:29.606Z,63.65
2022-11-18T09:33:58.805Z,64.01
2022-11-18T09:36:26.576Z,64.57
2022-11-18T09:38:53.769Z,65.45
2022-11-18T09:41:46.659Z,65.43
2022-11-18T09:44:22.265Z,65.71
2022-11-18T10:17:56.747Z,67.90
2022-11-18T10:20:47.189Z,66.98
2022-11-18T10:23:24.314Z,65.57
2022-11-18T10:25:53.246Z,65.86
2022-11-18T10:28:31.446Z,66.51
2022-11-18T10:31:07.656Z,66.55
2022-11-18T10:33:35.069Z,66.81
2022-11-18T10:36:17.175Z,66.72
2022-11-18T10:38:49.765Z,67.23
2022-11-18T10:41:20.775Z,67.74
2022-11-18T10:43:51.633Z,67.80
2022-11-18T10:46:28.939Z,66.45
2022-11-18T10:49:10.899Z,65.76
2022-11-18T10:51:46.565Z,65.42
2022-11-18T10:54:13.439Z,65.35
2022-11-18T10:56:48.845Z,63.88
2022-11-18T10:59:36.368Z,65.25
2022-11-18T11:02:15.834Z,65.43
2022-11-18T11:04:44.015Z,64.97
2022-11-18T11:07:35.188Z,65.74
2022-11-18T11:10:04.969Z,66.45
2022-11-18T11:12:37.696Z,66.59
2022-11-18T11:15:21.898Z,66.48
2022-11-18T11:18:16.799Z,66.58
2022-11-18T11:20:44.743Z,66.70
2022-11-18T11:23:16.692Z,66.50
2022-11-18T11:29:13.689Z,66.17
2022-11-18T11:31:58.957Z,66.60
2022-11-18T11:34:31.772Z,65.99
2022-11-18T11:37:14.603Z,66.69
2022-11-18T11:40:12.302Z,65.28
2022-11-18T11:42:42.091Z,65.86
2022-11-18T11:45:36.421Z,65.98
2022-11-18T11:48:06.345Z,66.50
2022-11-18T11:51:01.580Z,67.17
2022-11-18T11:53:44.697Z,66.69
2022-11-18T11:56:32.484Z,65.88
2022-11-18T11:59:23.828Z,66.93
2022-11-18T12:01:50.667Z,67.29
2022-11-18T12:04:36.237Z,67.41
2022-11-18T12:07:05.425Z,67.26
2022-11-18T12:09:39.656Z,66.80
2022-11-18T12:12:36.933Z,67.98
2022-11-18T12:15:41.230Z,68.12
2022-11-18T12:18:30.546Z,68.30
2022-11-18T12:20:57.564Z,68.09
2022-11-18T12:23:29.417Z,67.79
2022-11-18T12:26:03.378Z,68.05
2022-11-18T12:28:41.520Z,68.82
2022-11-18T12:31:23.572Z,69.29
2022-11-18T12:34:01.299Z,69.75
2022-11-18T12:36:36.985Z,69.71
2022-11-18T12:39:25.817Z,70.23
2022-11-18T12:42:15.729Z,70.61
2022-11-18T12:44:44.526Z,70.28
2022-11-18T12:47:13.373Z,69.92
2022-11-18T12:49:46.449Z,70.03
2022-11-18T12:52:31.778Z,69.78
2022-11-18T12:55:31.816Z,69.88
2022-11-18T12:57:58.719Z,69.39
2022-11-18T13:00:25.711Z,69.57
2022-11-18T13:02:58.192Z,69.17
2022-11-18T13:05:32.384Z,69.29
2022-11-18T13:08:14.529Z,69.68
2022-11-18T13:10:44.110Z,69.58
2022-11-18T13:13:27.644Z,70.06
2022-11-18T13:16:16.146Z,71.09
2022-11-18T13:18:51.272Z,70.53
2022-11-18T13:21:46.118Z,70.61
2022-11-18T13:24:14.739Z,70.91
2022-11-18T13:26:44.823Z,70.23
2022-11-18T13:30:01.198Z,70.45
2022-11-18T13:32:29.476Z,70.29
2022-11-18T13:34:59.586Z,70.52
2022-11-18T13:37:29.457Z,70.82
2022-11-18T13:39:56.770Z,70.92
2022-11-18T13:42:28.681Z,71.22
2022-11-18T13:45:02.898Z,71.71
2022-11-18T13:47:29.862Z,71.52
2022-11-18T13:49:56.655Z,71.90
2022-11-18T13:52:44.407Z,71.78
2022-11-18T13:55:52.064Z,71.95
2022-11-18T13:58:18.908Z,72.31
2022-11-18T14:00:57.790Z,72.16
2022-11-18T14:03:46.398Z,72.33
2022-11-18T14:06:24.801Z,72.95
2022-11-18T14:08:53.127Z,73.11
2022-11-18T14:11:38.161Z,73.36
2022-11-18T14:14:05.315Z,73.58
2022-11-18T14:16:40.450Z,74.38
2022-11-18T14:19:26.563Z,74.79
2022-11-18T14:22:23.318Z,75.51
2022-11-18T14:25:15.645Z,76.25
2022-11-18T14:27:49.393Z,76.16
2022-11-18T14:30:41.701Z,76.64
2022-11-18T14:33:08.539Z,76.91
2022-11-18T14:35:35.556Z,77.51
2022-11-18T14:41:00.117Z,77.80
2022-11-18T14:43:27.604Z,77.66
2022-11-18T14:45:58.221Z,78.26
2022-11-18T14:48:32.126Z,78.21
2022-11-18T14:51:00.362Z,78.81
2022-11-18T14:53:27.597Z,78.79
2022-11-18T14:55:58.726Z,79.75
2022-11-18T14:58:25.823Z,79.48
2022-11-18T15:00:53.274Z,79.78
2022-11-18T15:03:20.319Z,79.21
2022-11-18T15:05:47.298Z,79.68
2022-11-18T15:08:14.285Z,79.36
2022-11-18T15:10:41.211Z,82.01
2022-11-18T15:13:08.150Z,81.50
2022-11-18T15:15:35.269Z,80.47
2022-11-18T15:18:02.221Z,80.63
2022-11-18T15:20:29.166Z,80.52
2022-11-18T15:22:56.268Z,82.10
2022-11-18T15:25:23.174Z,82.25
2022-11-18T15:27:50.139Z,81.81
2022-11-18T15:30:17.250Z,81.86
2022-11-18T15:32:44.250Z,82.05
2022-11-18T15:35:13.395Z,82.69
2022-11-18T15:37:41.295Z,83.08
2022-11-18T15:40:08.982Z,82.95
2022-11-18T15:42:42.476Z,82.60
2022-11-18T15:45:15.965Z,82.63
2022-11-18T15:47:42.796Z,83.06
2022-11-18T15:50:10.714Z,82.86
2022-11-18T15:52:37.727Z,82.56
2022-11-18T15:55:08.049Z,83.54
2022-11-18T15:57:35.295Z,83.42
2022-11-18T16:00:02.463Z,82.86
2022-11-18T16:02:39.144Z,83.80
2022-11-18T16:05:06.591Z,83.97
2022-11-18T16:07:33.514Z,84.29
2022-11-18T16:10:19.046Z,84.06
2022-11-18T16:12:48.981Z,83.90
2022-11-18T16:15:35.373Z,84.08
2022-11-18T16:18:03.768Z,83.59
2022-11-18T16:20:30.808Z,83.35
2022-11-18T16:22:57.904Z,82.42
2022-11-18T16:25:25.926Z,83.40
2022-11-18T16:27:53.106Z,83.97
2022-11-18T16:30:38.828Z,83.95
2022-11-18T16:33:05.771Z,83.99
2022-11-18T16:35:32.964Z,84.20
2022-11-18T16:37:59.942Z,84.17
2022-11-18T16:40:28.610Z,84.28
2022-11-18T16:42:55.712Z,84.57
2022-11-18T16:45:22.652Z,84.29
2022-11-18T16:47:49.600Z,84.16
2022-11-18T16:50:16.778Z,83.96
2022-11-18T16:52:43.626Z,84.59
2022-11-18T16:55:10.548Z,83.86
2022-11-18T16:57:37.542Z,84.09
2022-11-18T17:00:05.435Z,83.98
2022-11-18T17:02:32.549Z,84.11
2022-11-18T17:04:59.518Z,83.81
2022-11-18T17:07:26.595Z,83.84
2022-11-18T17:09:53.540Z,83.70
2022-11-18T17:12:20.490Z,83.31
2022-11-18T17:14:47.332Z,83.33
2022-11-18T17:17:14.330Z,83.87
2022-11-18T17:19:41.440Z,83.56
2022-11-18T17:22:08.305Z,83.31
2022-11-18T17:24:35.236Z,83.91
2022-11-18T17:27:02.257Z,83.69
2022-11-18T17:29:29.152Z,83.99
2022-11-18T17:31:56.373Z,83.12
2022-11-18T17:34:23.322Z,83.07
2022-11-18T17:36:50.555Z,83.17
2022-11-18T17:39:18.913Z,83.70
2022-11-18T17:42:04.729Z,83.37
2022-11-18T17:44:31.661Z,83.50
2022-11-18T17:46:58.627Z,83.71
2022-11-18T17:49:25.660Z,82.97
2022-11-18T17:51:52.598Z,83.04
2022-11-18T17:54:20.866Z,83.10
2022-11-18T17:56:48.643Z,83.23
2022-11-18T17:59:17.499Z,83.46
2022-11-18T18:01:47.948Z,83.57
2022-11-18T18:04:20.377Z,83.26
2022-11-18T18:06:52.933Z,83.33
2022-11-18T18:09:26.886Z,83.42
2022-11-18T18:11:58.217Z,82.99
2022-11-18T18:14:25.136Z,83.69
2022-11-18T18:16:52.080Z,83.07
2022-11-18T18:19:21.256Z,82.59
2022-11-18T18:21:48.390Z,82.85
2022-11-18T18:24:17.562Z,83.03
2022-11-18T18:26:44.942Z,82.55
2022-11-18T18:29:12.614Z,82.95
2022-11-18T18:31:39.828Z,82.38
2022-11-18T18:34:06.798Z,82.47
2022-11-18T18:36:34.401Z,82.27
2022-11-18T18:39:02.492Z,82.58
2022-11-18T18:41:30.489Z,83.25
2022-11-18T18:43:57.560Z,82.36
2022-11-18T18:46:29.900Z,82.49
2022-11-18T18:49:10.949Z,82.48
2022-11-18T18:51:43.221Z,82.01
2022-11-18T18:54:11.919Z,81.92
2022-11-18T18:56:38.945Z,81.68
2022-11-18T18:59:07.278Z,82.18
2022-11-18T19:01:35.003Z,82.27
2022-11-18T19:04:04.864Z,81.45
2022-11-18T19:09:26.680Z,81.57
2022-11-18T19:12:12.696Z,81.36
2022-11-18T19:14:39.839Z,80.92
2022-11-18T19:17:11.392Z,81.28
2022-11-18T19:19:59.523Z,81.14
2022-11-18T19:22:30.888Z,81.05
2022-11-18T19:24:58.563Z,80.93
2022-11-18T19:27:26.280Z,80.76
2022-11-18T19:29:53.197Z,80.83
2022-11-18T19:32:20.233Z,80.22
2022-11-18T19:34:47.134Z,80.44
2022-11-18T19:37:14.047Z,80.04
2022-11-18T19:39:40.941Z,80.59
2022-11-18T19:42:08.051Z,80.37
2022-11-18T19:44:34.918Z,79.88
2022-11-18T19:47:01.852Z,79.92
2022-11-18T19:49:28.804Z,79.86
2022-11-18T19:51:55.736Z,79.65
2022-11-18T19:54:23.660Z,79.50
2022-11-18T19:56:50.708Z,79.08
2022-11-18T19:59:17.932Z,79.75
2022-11-18T20:01:45.236Z,79.69
2022-11-18T20:04:12.287Z,79.63
2022-11-18T20:06:40.257Z,79.26
2022-11-18T20:09:09.047Z,79.39
2022-11-18T20:11:36.599Z,79.09
2022-11-18T20:14:03.552Z,79.44
2022-11-18T20:16:30.795Z,79.17
2022-11-18T20:19:02.912Z,78.87
2022-11-18T20:21:34.451Z,78.90
2022-11-18T20:24:03.483Z,79.40
2022-11-18T20:26:40.285Z,78.96
2022-11-18T20:29:08.264Z,78.66
2022-11-18T20:31:37.385Z,79.35
2022-11-18T20:34:05.268Z,79.42
2022-11-18T20:36:35.683Z,79.32
2022-11-18T20:39:14.647Z,78.84
2022-11-18T20:41:42.227Z,78.20
2022-11-18T20:44:09.187Z,77.77
2022-11-18T20:46:36.064Z,77.37
2022-11-18T20:49:03.399Z,77.64
2022-11-18T20:51:30.339Z,77.72
2022-11-18T20:53:58.606Z,78.14
2022-11-18T20:56:27.495Z,77.89
2022-11-18T20:58:57.017Z,78.13
2022-11-18T21:01:27.201Z,78.11
2022-11-18T21:03:59.385Z,78.62
2022-11-18T21:06:29.386Z,77.53
2022-11-18T21:09:00.233Z,77.93
2022-11-18T21:11:27.945Z,78.37
2022-11-18T21:14:16.021Z,78.31
2022-11-18T21:16:46.482Z,77.49
2022-11-18T21:19:13.920Z,78.09
2022-11-18T21:21:48.866Z,78.09
2022-11-18T21:24:19.779Z,78.35
2022-11-18T21:26:48.876Z,77.89
2022-11-18T21:29:17.680Z,78.29
2022-11-18T21:31:47.066Z,78.47
2022-11-18T21:34:15.534Z,78.28
2022-11-18T21:36:45.982Z,77.75
2022-11-18T21:39:15.560Z,78.46
2022-11-18T21:41:43.473Z,78.50
2022-11-18T21:44:12.745Z,78.19
2022-11-18T21:46:41.457Z,77.94
2022-11-18T21:49:08.625Z,78.41
2022-11-18T21:51:35.973Z,78.31
2022-11-18T21:54:03.141Z,78.64
2022-11-18T21:56:31.482Z,78.57
2022-11-18T21:59:01.312Z,78.53
2022-11-18T22:01:33.542Z,77.88
2022-11-18T22:04:03.128Z,78.47
2022-11-18T22:06:33.902Z,78.63
2022-11-18T22:09:02.574Z,78.77
2022-11-18T22:11:29.440Z,78.99
2022-11-18T22:13:56.322Z,78.59
2022-11-18T22:16:24.803Z,78.73
2022-11-18T22:18:59.188Z,78.68
2022-11-18T22:21:29.400Z,79.68
2022-11-18T22:24:00.917Z,79.19
2022-11-18T22:26:28.794Z,79.95
2022-11-18T22:28:57.383Z,79.79
2022-11-18T22:31:26.650Z,79.44
2022-11-18T22:33:55.594Z,78.89
2022-11-18T22:36:25.586Z,79.45
2022-11-18T22:38:53.944Z,79.39
2022-11-18T22:41:42.423Z,79.00
2022-11-18T22:44:10.549Z,79.31
2022-11-18T22:46:38.895Z,79.70
2022-11-18T22:49:07.538Z,80.56
2022-11-18T22:51:35.983Z,80.01
2022-11-18T22:54:31.235Z,80.27
2022-11-18T22:56:50.853Z,80.35
2022-11-18T22:59:18.050Z,79.78
2022-11-18T23:01:45.188Z,80.20
2022-11-18T23:04:12.033Z,80.80
2022-11-18T23:06:39.098Z,80.24
2022-11-18T23:09:06.111Z,79.81
2022-11-18T23:11:51.445Z,80.35
2022-11-18T23:14:18.334Z,80.20
2022-11-18T23:16:45.291Z,80.57
2022-11-18T23:19:14.644Z,79.77
2022-11-18T23:21:42.916Z,80.16
2022-11-18T23:24:14.599Z,79.97
2022-11-18T23:26:42.205Z,79.79
2022-11-18T23:29:10.426Z,80.14
2022-11-18T23:31:40.874Z,79.37
2022-11-18T23:34:07.774Z,79.83
2022-11-18T23:36:34.622Z,78.94
2022-11-18T23:39:01.471Z,79.60
2022-11-18T23:41:28.363Z,79.94
2022-11-18T23:43:55.224Z,79.34
2022-11-18T23:46:22.065Z,78.76
2022-11-18T23:48:49.219Z,78.32
2022-11-18T23:51:20.945Z,79.41
2022-11-18T23:53:52.655Z,79.02
2022-11-18T23:56:21.044Z,79.04
2022-11-18T23:58:50.234Z,77.99
